createdAt,value
2022-08-17T00:00:49.398Z,100639.81
2022-08-17T00:03:25.633Z,100640.84
2022-08-17T00:06:19.772Z,100641.41
2022-08-17T00:08:52.700Z,100636.72
2022-08-17T00:11:31.003Z,100628.59
2022-08-17T00:14:11.703Z,100629.81
2022-08-17T00:16:56.122Z,100625.28
2022-08-17T00:19:27.944Z,100629.72
2022-08-17T00:22:35.123Z,100634.47
2022-08-17T00:24:53.989Z,100639.84
2022-08-17T00:27:37.782Z,100638.31
2022-08-17T00:30:10.100Z,100645.25
2022-08-17T00:33:12.248Z,100651.25
2022-08-17T00:35:31.419Z,100643.09
2022-08-17T00:37:59.712Z,100649.84
2022-08-17T00:40:40.085Z,100645.81
2022-08-17T00:43:20.593Z,100643.47
2022-08-17T00:45:50.104Z,100648.91
2022-08-17T00:48:29.178Z,100642.44
2022-08-17T00:51:13.739Z,100646.03
2022-08-17T00:54:10.092Z,100646.84
2022-08-17T00:56:45.086Z,100640.13
2022-08-17T00:59:30.538Z,100643.66
2022-08-17T01:02:12.271Z,100646.38
2022-08-17T01:04:41.255Z,100651.44
2022-08-17T01:07:29.638Z,100654.31
2022-08-17T01:10:01.767Z,100657.72
2022-08-17T01:12:31.991Z,100652.66
2022-08-17T01:21:54.592Z,100651.72
2022-08-17T01:30:59.515Z,100650.88
2022-08-17T01:33:28.737Z,100650.03
2022-08-17T01:35:57.519Z,100648.72
2022-08-17T01:38:32.682Z,100657.88
2022-08-17T01:41:09.457Z,100644.22
2022-08-17T01:43:45.556Z,100656.84
2022-08-17T02:27:47.948Z,100675.94
2022-08-17T02:31:01.667Z,100666.97
2022-08-17T02:33:10.926Z,100667.13
2022-08-17T02:35:40.759Z,100665.75
2022-08-17T02:38:22.185Z,100658.84
2022-08-17T02:40:57.344Z,100671.28
2022-08-17T02:43:29.096Z,100668.72
2022-08-17T02:45:59.036Z,100665.38
2022-08-17T02:48:31.116Z,100678.25
2022-08-17T02:51:01.340Z,100672.47
2022-08-17T02:53:36.025Z,100674.16
2022-08-17T02:56:05.338Z,100669.97
2022-08-17T02:58:36.476Z,100681.66
2022-08-17T03:01:09.141Z,100673.78
2022-08-17T03:03:40.037Z,100683.13
2022-08-17T03:06:14.480Z,100678.94
2022-08-17T03:08:43.421Z,100685.84
2022-08-17T03:11:14.959Z,100688.09
2022-08-17T03:13:59.940Z,100688.56
2022-08-17T03:16:34.453Z,100692.50
2022-08-17T03:19:03.598Z,100690.06
2022-08-17T03:21:36.278Z,100691.09
2022-08-17T03:24:09.087Z,100698.47
2022-08-17T03:26:37.832Z,100702.22
2022-08-17T03:29:09.246Z,100690.72
2022-08-17T03:31:39.369Z,100698.00
2022-08-17T03:34:07.895Z,100696.34
2022-08-17T03:36:44.063Z,100698.84
2022-08-17T03:39:20.590Z,100696.81
2022-08-17T03:41:59.290Z,100701.56
2022-08-17T03:44:56.959Z,100695.13
2022-08-17T03:47:44.190Z,100701.19
2022-08-17T03:53:43.351Z,100695.22
2022-08-17T03:56:29.970Z,100698.00
2022-08-17T03:59:03.565Z,100695.50
2022-08-17T04:01:38.493Z,100691.38
2022-08-17T04:04:10.010Z,100698.13
2022-08-17T04:06:41.857Z,100692.69
2022-08-17T04:09:26.532Z,100693.34
2022-08-17T04:12:06.881Z,100693.34
2022-08-17T04:17:40.896Z,100705.69
2022-08-17T04:20:11.759Z,100700.72
2022-08-17T04:22:41.665Z,100706.16
2022-08-17T04:25:17.135Z,100699.03
2022-08-17T04:27:45.945Z,100701.75
2022-08-17T04:30:14.757Z,100702.41
2022-08-17T04:33:05.746Z,100697.66
2022-08-17T04:35:38.042Z,100693.91
2022-08-17T04:38:11.812Z,100689.97
2022-08-17T04:40:58.159Z,100701.19
2022-08-17T04:43:28.299Z,100692.84
2022-08-17T04:45:59.445Z,100702.03
2022-08-17T04:48:36.320Z,100712.88
2022-08-17T04:51:10.365Z,100704.28
2022-08-17T04:56:28.230Z,100700.34
2022-08-17T04:59:00.988Z,100701.13
2022-08-17T05:01:40.924Z,100699.41
2022-08-17T05:04:33.177Z,100704.84
2022-08-17T05:07:05.823Z,100701.66
2022-08-17T05:09:40.840Z,100711.84
2022-08-17T05:12:32.441Z,100710.66
2022-08-17T05:15:24.351Z,100709.63
2022-08-17T05:17:53.154Z,100706.91
2022-08-17T05:20:56.299Z,100716.91
2022-08-17T05:23:42.385Z,100708.56
2022-08-17T05:26:25.545Z,100719.91
2022-08-17T05:28:55.115Z,100713.38
2022-08-17T05:31:26.150Z,100716.72
2022-08-17T05:33:54.571Z,100721.78
2022-08-17T05:36:41.581Z,100711.78
2022-08-17T05:39:16.493Z,100712.31
2022-08-17T05:41:47.276Z,100724.84
2022-08-17T05:44:15.734Z,100724.09
2022-08-17T05:46:49.226Z,100722.06
2022-08-17T05:49:28.429Z,100725.81
2022-08-17T05:52:08.590Z,100734.22
2022-08-17T05:54:52.044Z,100725.69
2022-08-17T05:57:39.943Z,100729.72
2022-08-17T06:00:21.164Z,100735.34
2022-08-17T06:03:27.155Z,100744.00
2022-08-17T06:06:18.484Z,100742.56
2022-08-17T06:08:54.848Z,100744.63
2022-08-17T06:11:32.241Z,100739.69
2022-08-17T06:14:31.218Z,100744.16
2022-08-17T06:17:04.183Z,100741.44
2022-08-17T06:19:38.564Z,100743.59
2022-08-17T06:22:09.309Z,100740.31
2022-08-17T06:24:41.245Z,100732.84
2022-08-17T06:27:17.892Z,100737.31
2022-08-17T06:29:55.159Z,100735.31
2022-08-17T06:32:23.642Z,100745.41
2022-08-17T06:34:52.910Z,100747.38
2022-08-17T06:37:39.414Z,100745.31
2022-08-17T06:40:23.161Z,100753.53
2022-08-17T06:43:05.994Z,100759.44
2022-08-17T06:45:43.772Z,100749.41
2022-08-17T06:48:24.987Z,100750.72
2022-08-17T06:51:00.246Z,100746.50
2022-08-17T06:53:33.976Z,100756.97
2022-08-17T06:56:06.507Z,100757.44
2022-08-17T06:58:38.811Z,100758.78
2022-08-17T07:01:14.272Z,100754.53
2022-08-17T07:03:54.866Z,100761.38
2022-08-17T07:06:26.475Z,100763.91
2022-08-17T07:08:59.296Z,100758.66
2022-08-17T07:11:32.669Z,100761.28
2022-08-17T07:14:17.280Z,100764.28
2022-08-17T07:16:49.345Z,100768.09
2022-08-17T07:19:19.528Z,100777.19
2022-08-17T07:21:55.148Z,100778.72
2022-08-17T07:24:37.408Z,100790.13
2022-08-17T07:27:13.042Z,100792.22
2022-08-17T07:29:46.905Z,100792.50
2022-08-17T07:32:18.720Z,100797.31
2022-08-17T07:35:15.697Z,100801.91
2022-08-17T07:37:46.758Z,100808.38
2022-08-17T07:40:26.575Z,100803.56
2022-08-17T07:43:23.004Z,100819.50
2022-08-17T07:46:18.380Z,100821.66
2022-08-17T07:48:50.940Z,100821.50
2022-08-17T07:51:25.194Z,100824.88
2022-08-17T07:54:04.773Z,100830.19
2022-08-17T07:56:46.096Z,100823.53
2022-08-17T07:59:23.009Z,100826.06
2022-08-17T08:02:10.246Z,100833.00
2022-08-17T08:05:00.729Z,100832.41
2022-08-17T08:07:38.766Z,100830.28
2022-08-17T08:10:11.182Z,100827.75
2022-08-17T08:12:41.473Z,100834.09
2022-08-17T08:15:15.411Z,100834.53
2022-08-17T08:17:57.788Z,100831.66
2022-08-17T08:20:51.059Z,100827.59
2022-08-17T08:23:33.432Z,100835.19
2022-08-17T08:26:18.456Z,100839.00
2022-08-17T08:29:01.614Z,100839.53
2022-08-17T08:31:44.084Z,100840.81
2022-08-17T08:34:58.622Z,100832.28
2022-08-17T08:37:32.728Z,100843.53
2022-08-17T08:40:11.540Z,100853.16
2022-08-17T08:42:46.839Z,100852.75
2022-08-17T08:45:21.004Z,100848.97
2022-08-17T08:48:07.100Z,100856.31
2022-08-17T08:51:01.379Z,100863.44
2022-08-17T08:53:36.732Z,100857.41
2022-08-17T08:56:12.298Z,100868.13
2022-08-17T08:58:51.767Z,100866.25
2022-08-17T09:01:26.033Z,100873.38
2022-08-17T09:04:24.192Z,100876.56
2022-08-17T09:07:08.125Z,100869.47
2022-08-17T09:09:50.727Z,100882.13
2022-08-17T09:12:27.045Z,100887.00
2022-08-17T09:15:02.499Z,100885.56
2022-08-17T09:17:38.202Z,100893.56
2022-08-17T09:20:27.885Z,100886.41
2022-08-17T09:23:06.671Z,100896.28
2022-08-17T09:25:49.836Z,100888.56
2022-08-17T09:28:21.435Z,100882.75
2022-08-17T09:30:53.623Z,100879.03
2022-08-17T09:33:26.342Z,100881.59
2022-08-17T09:35:58.545Z,100885.41
2022-08-17T09:38:36.155Z,100888.97
2022-08-17T09:41:11.943Z,100899.50
2022-08-17T09:43:46.015Z,100894.22
2022-08-17T09:46:20.936Z,100895.47
2022-08-17T09:48:55.357Z,100899.88
2022-08-17T09:51:30.879Z,100891.03
2022-08-17T09:54:20.898Z,100905.50
2022-08-17T09:57:11.722Z,100901.75
2022-08-17T09:59:59.095Z,100900.53
2022-08-17T10:03:04.541Z,100910.88
2022-08-17T10:05:38.710Z,100915.31
2022-08-17T10:08:13.393Z,100917.81
2022-08-17T10:10:56.273Z,100921.59
2022-08-17T10:13:35.802Z,100914.69
2022-08-17T10:16:12.766Z,100925.19
2022-08-17T10:18:48.356Z,100926.22
2022-08-17T10:21:36.355Z,100931.47
2022-08-17T10:24:27.963Z,100929.19
2022-08-17T10:27:01.656Z,100929.59
2022-08-17T10:29:46.189Z,100931.69
2022-08-17T10:32:26.727Z,100916.56
2022-08-17T10:35:25.681Z,100914.44
2022-08-17T10:38:12.117Z,100906.88
2022-08-17T10:40:49.834Z,100916.56
2022-08-17T10:43:32.920Z,100906.47
2022-08-17T10:46:30.617Z,100915.09
2022-08-17T10:49:25.136Z,100915.47
2022-08-17T10:51:54.727Z,100909.13
2022-08-17T10:54:48.567Z,100916.69
2022-08-17T10:57:40.871Z,100912.31
2022-08-17T11:00:16.029Z,100914.84
2022-08-17T11:02:50.184Z,100913.59
2022-08-17T11:05:46.843Z,100904.34
2022-08-17T11:08:41.190Z,100916.72
2022-08-17T11:11:25.681Z,100923.69
2022-08-17T11:14:06.341Z,100911.00
2022-08-17T11:16:51.468Z,100915.81
2022-08-17T11:19:50.072Z,100918.50
2022-08-17T11:22:45.822Z,100920.56
2022-08-17T11:25:17.565Z,100922.66
2022-08-17T11:27:53.672Z,100924.50
2022-08-17T11:30:49.100Z,100929.75
2022-08-17T11:34:03.601Z,100931.22
2022-08-17T11:37:02.572Z,100922.97
2022-08-17T11:39:50.256Z,100933.03
2022-08-17T11:42:36.365Z,100936.38
2022-08-17T11:45:32.302Z,100941.41
2022-08-17T11:48:29.190Z,100950.63
2022-08-17T11:51:25.432Z,100945.13
2022-08-17T11:54:34.623Z,100952.69
2022-08-17T11:57:42.829Z,100952.63
2022-08-17T12:00:51.408Z,100953.69
2022-08-17T12:03:56.001Z,100941.25
2022-08-17T12:06:45.384Z,100943.81
2022-08-17T12:09:18.720Z,100956.25
2022-08-17T12:12:11.677Z,100947.56
2022-08-17T12:17:41.003Z,100957.59
2022-08-17T12:20:15.136Z,100965.50
2022-08-17T12:22:54.935Z,100966.66
2022-08-17T12:25:33.138Z,100965.25
2022-08-17T12:28:05.666Z,100968.59
2022-08-17T12:30:36.769Z,100966.00
2022-08-17T12:33:25.679Z,100964.72
2022-08-17T12:36:03.160Z,100974.56
2022-08-17T12:38:35.091Z,100976.19
2022-08-17T12:41:26.539Z,100962.47
2022-08-17T12:44:02.096Z,100966.66
2022-08-17T12:46:33.693Z,100961.94
2022-08-17T12:49:25.264Z,100974.19
2022-08-17T12:52:01.378Z,100966.19
2022-08-17T12:54:41.888Z,100964.28
2022-08-17T12:57:14.718Z,100956.00
2022-08-17T12:59:46.291Z,100965.69
2022-08-17T13:02:34.048Z,100968.34
2022-08-17T13:05:03.659Z,100958.97
2022-08-17T13:07:42.930Z,100959.06
2022-08-17T13:10:19.410Z,100959.69
2022-08-17T13:12:49.610Z,100963.28
2022-08-17T13:15:32.389Z,100964.69
2022-08-17T13:18:30.521Z,100965.56
2022-08-17T13:21:01.172Z,100951.31
2022-08-17T13:23:32.408Z,100955.56
2022-08-17T13:26:06.044Z,100941.25
2022-08-17T13:28:35.992Z,100952.06
2022-08-17T13:31:33.018Z,100945.31
2022-08-17T13:34:33.321Z,100944.59
2022-08-17T13:37:27.822Z,100945.75
2022-08-17T13:39:59.890Z,100946.50
2022-08-17T13:42:51.448Z,100947.84
2022-08-17T13:45:50.615Z,100949.06
2022-08-17T13:48:26.935Z,100955.94
2022-08-17T13:51:21.109Z,100954.16
2022-08-17T13:53:56.458Z,100950.31
2022-08-17T13:56:39.597Z,100956.03
2022-08-17T13:59:11.464Z,100958.91
2022-08-17T14:01:42.041Z,100962.22
2022-08-17T14:04:12.427Z,100954.88
2022-08-17T14:06:53.172Z,100953.53
2022-08-17T14:09:25.406Z,100947.16
2022-08-17T14:11:55.393Z,100947.22
2022-08-17T14:14:24.491Z,100951.66
2022-08-17T14:16:53.137Z,100951.63
2022-08-17T14:19:22.064Z,100953.16
2022-08-17T14:21:50.878Z,100960.84
2022-08-17T14:24:26.781Z,100951.09
2022-08-17T14:26:55.210Z,100962.38
2022-08-17T14:29:25.332Z,100958.81
2022-08-17T14:31:54.292Z,100967.75
2022-08-17T14:34:23.353Z,100949.59
2022-08-17T14:36:52.429Z,100959.75
2022-08-17T14:39:21.287Z,100966.53
2022-08-17T14:41:52.065Z,100969.06
2022-08-17T14:44:20.612Z,100966.72
2022-08-17T14:46:50.763Z,100970.94
2022-08-17T14:49:19.857Z,100971.22
2022-08-17T14:51:48.517Z,100973.66
2022-08-17T14:54:29.483Z,100974.28
2022-08-17T14:57:26.108Z,100974.94
2022-08-17T14:59:55.089Z,100967.09
2022-08-17T15:02:29.527Z,100980.41
2022-08-17T15:05:01.933Z,100980.53
2022-08-17T15:07:30.789Z,100981.22
2022-08-17T15:10:00.590Z,100980.16
2022-08-17T15:12:34.086Z,100985.81
2022-08-17T15:15:05.003Z,100977.66
2022-08-17T15:17:45.186Z,100977.97
2022-08-17T15:20:16.002Z,100977.19
2022-08-17T15:22:49.774Z,100979.00
2022-08-17T15:25:19.925Z,100978.53
2022-08-17T15:27:49.702Z,100982.19
2022-08-17T15:30:18.952Z,100985.78
2022-08-17T15:32:51.581Z,100976.09
2022-08-17T15:35:27.930Z,100972.75
2022-08-17T15:38:07.904Z,100973.84
2022-08-17T15:40:40.729Z,100983.03
2022-08-17T15:43:12.449Z,100985.78
2022-08-17T15:45:41.058Z,100988.00
2022-08-17T15:48:09.357Z,100982.75
2022-08-17T15:50:38.041Z,100982.75
2022-08-17T15:53:06.219Z,100971.91
2022-08-17T15:55:36.655Z,100984.66
2022-08-17T15:58:04.759Z,100976.34
2022-08-17T16:00:43.524Z,100981.34
2022-08-17T16:03:58.374Z,100975.78
2022-08-17T16:06:09.759Z,100971.88
2022-08-17T16:08:41.612Z,100978.56
2022-08-17T16:11:10.702Z,100974.94
2022-08-17T16:13:39.761Z,100976.84
2022-08-17T16:16:11.983Z,100980.47
2022-08-17T16:18:40.553Z,100980.78
2022-08-17T16:21:27.230Z,100982.16
2022-08-17T16:23:58.233Z,100985.78
2022-08-17T16:26:26.748Z,100979.13
2022-08-17T16:28:58.259Z,100979.94
2022-08-17T16:31:28.255Z,100987.44
2022-08-17T16:34:15.599Z,100987.72
2022-08-17T16:36:55.266Z,100988.56
2022-08-17T16:39:25.653Z,100995.22
2022-08-17T16:41:53.763Z,100998.56
2022-08-17T16:44:23.203Z,100999.66
2022-08-17T16:46:53.534Z,101005.44
2022-08-17T16:49:35.772Z,101011.59
2022-08-17T16:52:10.616Z,101008.16
2022-08-17T16:54:40.666Z,101023.13
2022-08-17T16:57:08.883Z,101024.28
2022-08-17T16:59:41.923Z,101024.91
2022-08-17T17:02:17.160Z,101022.16
2022-08-17T17:04:53.069Z,101030.84
2022-08-17T17:07:49.655Z,101027.09
2022-08-17T17:10:21.148Z,101025.28
2022-08-17T17:13:02.368Z,101025.72
2022-08-17T17:15:46.561Z,101023.91
2022-08-17T17:18:17.903Z,101022.13
2022-08-17T17:20:53.602Z,101018.41
2022-08-17T17:23:33.455Z,101033.78
2022-08-17T17:26:19.414Z,101029.63
2022-08-17T17:29:01.035Z,101032.44
2022-08-17T17:31:38.602Z,101033.78
2022-08-17T17:34:11.917Z,101027.94
2022-08-17T17:36:45.513Z,101045.31
2022-08-17T17:39:18.780Z,101047.75
2022-08-17T17:41:50.339Z,101048.84
2022-08-17T17:44:22.907Z,101052.94
2022-08-17T17:46:55.653Z,101060.13
2022-08-17T17:49:27.483Z,101062.41
2022-08-17T17:52:10.030Z,101063.81
2022-08-17T17:54:50.308Z,101058.47
2022-08-17T17:57:24.781Z,101060.66
2022-08-17T18:00:00.633Z,101061.72
2022-08-17T18:02:52.008Z,101057.00
2022-08-17T18:05:43.861Z,101075.00
2022-08-17T18:08:32.310Z,101068.44
2022-08-17T18:11:14.480Z,101075.50
2022-08-17T18:14:07.645Z,101080.50
2022-08-17T18:16:35.744Z,101084.38
2022-08-17T18:19:03.911Z,101088.50
2022-08-17T18:21:39.396Z,101093.66
2022-08-17T18:24:10.581Z,101092.16
2022-08-17T18:26:53.703Z,101091.19
2022-08-17T18:29:31.432Z,101080.28
2022-08-17T18:32:31.964Z,101079.41
2022-08-17T18:35:03.642Z,101084.13
2022-08-17T18:37:40.676Z,101091.16
2022-08-17T18:40:32.740Z,101089.47
2022-08-17T18:43:06.443Z,101096.56
2022-08-17T18:45:40.984Z,101090.72
2022-08-17T18:48:22.626Z,101100.03
2022-08-17T18:50:53.467Z,101094.75
2022-08-17T18:53:38.778Z,101096.06
2022-08-17T18:56:30.482Z,101096.38
2022-08-17T18:59:18.504Z,101094.97
2022-08-17T19:02:03.241Z,101101.19
2022-08-17T19:04:39.283Z,101102.69
2022-08-17T19:07:26.764Z,101087.28
2022-08-17T19:10:00.367Z,101090.03
2022-08-17T19:12:33.390Z,101091.44
2022-08-17T19:15:02.250Z,101084.63
2022-08-17T19:17:38.309Z,101096.28
2022-08-17T19:20:14.374Z,101089.84
2022-08-17T19:22:58.295Z,101094.94
2022-08-17T19:25:32.098Z,101109.13
2022-08-17T19:28:15.376Z,101109.78
2022-08-17T19:30:51.401Z,101114.59
2022-08-17T19:33:19.752Z,101125.13
2022-08-17T19:35:55.696Z,101123.88
2022-08-17T19:38:35.612Z,101132.50
2022-08-17T19:41:12.773Z,101118.63
2022-08-17T19:43:55.878Z,101134.59
2022-08-17T19:46:35.722Z,101133.53
2022-08-17T19:49:14.859Z,101137.50
2022-08-17T19:51:52.510Z,101140.47
2022-08-17T19:54:27.168Z,101140.66
2022-08-17T19:57:03.478Z,101147.31
2022-08-17T19:59:49.006Z,101161.19
2022-08-17T20:02:29.179Z,101160.75
2022-08-17T20:05:01.461Z,101158.00
2022-08-17T20:07:40.356Z,101163.03
2022-08-17T20:10:13.907Z,101157.34
2022-08-17T20:12:45.454Z,101151.00
2022-08-17T20:15:22.154Z,101155.19
2022-08-17T20:17:50.688Z,101145.50
2022-08-17T20:20:29.850Z,101158.31
2022-08-17T20:23:05.788Z,101162.66
2022-08-17T20:25:43.105Z,101155.06
2022-08-17T20:28:23.054Z,101156.66
2022-08-17T20:30:51.709Z,101156.34
2022-08-17T20:33:29.894Z,101157.16
2022-08-17T20:36:05.382Z,101149.97
2022-08-17T20:38:43.087Z,101151.44
2022-08-17T20:41:22.461Z,101154.94
2022-08-17T20:44:07.191Z,101151.78
2022-08-17T20:46:58.272Z,101151.72
2022-08-17T20:49:31.299Z,101152.13
2022-08-17T20:52:04.045Z,101152.50
2022-08-17T20:54:48.586Z,101152.22
2022-08-17T20:57:49.188Z,101148.34
2022-08-17T21:00:48.046Z,101155.38
2022-08-17T21:03:58.498Z,101164.34
2022-08-17T21:06:27.264Z,101161.78
2022-08-17T21:08:59.028Z,101157.19
2022-08-17T21:12:04.661Z,101159.72
2022-08-17T21:14:42.375Z,101162.63
2022-08-17T21:17:42.422Z,101162.31
2022-08-17T21:20:24.762Z,101167.97
2022-08-17T21:23:05.329Z,101169.75
2022-08-17T21:25:56.477Z,101168.88
2022-08-17T21:28:33.749Z,101168.19
2022-08-17T21:31:09.222Z,101175.25
2022-08-17T21:33:40.995Z,101166.63
2022-08-17T21:36:27.706Z,101170.56
2022-08-17T21:39:08.925Z,101169.25
2022-08-17T21:41:48.006Z,101166.72
2022-08-17T21:44:27.832Z,101170.09
2022-08-17T21:47:14.573Z,101177.25
2022-08-17T21:49:44.595Z,101179.78
2022-08-17T21:52:15.939Z,101179.03
2022-08-17T21:54:51.761Z,101184.28
2022-08-17T21:57:23.155Z,101183.91
2022-08-17T21:59:56.641Z,101189.16
2022-08-17T22:02:27.235Z,101193.38
2022-08-17T22:05:02.422Z,101187.72
2022-08-17T22:07:39.893Z,101188.97
2022-08-17T22:10:27.721Z,101195.38
2022-08-17T22:13:16.772Z,101189.63
2022-08-17T22:15:48.524Z,101190.25
2022-08-17T22:18:28.998Z,101185.69
2022-08-17T22:21:00.458Z,101187.94
2022-08-17T22:23:51.246Z,101182.50
2022-08-17T22:26:22.323Z,101173.91
2022-08-17T22:28:53.575Z,101172.94
2022-08-17T22:31:24.356Z,101169.50
2022-08-17T22:34:07.827Z,101181.56
2022-08-17T22:36:39.130Z,101174.03
2022-08-17T22:39:41.826Z,101174.88
2022-08-17T22:42:15.999Z,101183.25
2022-08-17T22:44:49.484Z,101178.66
2022-08-17T22:47:32.594Z,101184.28
2022-08-17T22:50:03.071Z,101183.97
2022-08-17T22:52:35.802Z,101181.97
2022-08-17T22:55:26.190Z,101185.03
2022-08-17T22:58:11.880Z,101189.59
2022-08-17T23:00:44.055Z,101189.75
2022-08-17T23:03:16.631Z,101188.34
2022-08-17T23:05:47.715Z,101190.41
2022-08-17T23:08:21.431Z,101190.41
2022-08-17T23:10:49.956Z,101186.03
2022-08-17T23:13:18.100Z,101183.66
2022-08-17T23:15:48.276Z,101191.94
2022-08-17T23:18:17.876Z,101193.59
2022-08-17T23:20:47.024Z,101185.84
2022-08-17T23:23:19.675Z,101186.31
2022-08-17T23:25:51.387Z,101180.19
2022-08-17T23:28:19.892Z,101168.47
2022-08-17T23:30:48.588Z,101168.00
2022-08-17T23:33:22.235Z,101169.59
2022-08-17T23:35:50.482Z,101176.66
2022-08-17T23:38:20.111Z,101176.09
2022-08-17T23:40:48.508Z,101176.38
2022-08-17T23:43:24.584Z,101179.06
2022-08-17T23:45:55.220Z,101177.53
2022-08-17T23:48:35.615Z,101179.31
2022-08-17T23:51:08.846Z,101178.56
2022-08-17T23:53:42.097Z,101178.25
2022-08-17T23:56:11.530Z,101181.91
2022-08-17T23:58:42.324Z,101178.88
